createdAt,value
2019-05-09T00:02:43.603Z,1.97
2019-05-09T00:06:45.509Z,1.97
2019-05-09T00:10:47.669Z,2.33
2019-05-09T00:14:51.314Z,2.23
2019-05-09T00:18:54.264Z,2.17
2019-05-09T00:22:56.777Z,2.30
2019-05-09T00:26:58.936Z,2.00
2019-05-09T00:31:05.693Z,2.13
2019-05-09T00:35:14.280Z,2.20
2019-05-09T00:39:16.303Z,2.57
2019-05-09T00:43:18.292Z,2.63
2019-05-09T00:47:26.534Z,2.30
2019-05-09T00:51:28.596Z,2.40
2019-05-09T00:55:30.493Z,2.40
2019-05-09T00:59:33.248Z,2.50
2019-05-09T01:03:35.338Z,2.67
2019-05-09T01:07:37.200Z,2.57
2019-05-09T01:11:39.350Z,3.03
2019-05-09T01:15:41.176Z,2.20
2019-05-09T01:19:43.326Z,1.97
2019-05-09T01:23:45.290Z,2.60
2019-05-09T01:27:47.256Z,2.50
2019-05-09T01:31:49.076Z,2.63
2019-05-09T01:35:50.960Z,2.60
2019-05-09T01:39:53.419Z,3.17
2019-05-09T01:43:55.449Z,2.47
2019-05-09T01:47:57.406Z,2.47
2019-05-09T01:52:03.388Z,2.20
2019-05-09T01:56:05.302Z,2.40
2019-05-09T02:00:07.801Z,2.33
2019-05-09T02:04:09.677Z,2.07
2019-05-09T02:08:14.078Z,2.17
2019-05-09T02:12:15.120Z,3.00
2019-05-09T02:16:54.205Z,2.37
2019-05-09T02:20:56.041Z,2.33
2019-05-09T02:24:58.012Z,2.57
2019-05-09T02:28:59.923Z,3.10
2019-05-09T02:33:04.805Z,3.27
2019-05-09T02:37:05.505Z,2.97
2019-05-09T02:41:08.641Z,3.53
2019-05-09T02:45:11.419Z,3.57
2019-05-09T02:49:13.304Z,3.67
2019-05-09T02:53:15.420Z,2.93
2019-05-09T02:57:18.502Z,2.93
2019-05-09T03:01:33.968Z,2.73
2019-05-09T03:05:38.372Z,2.40
2019-05-09T03:09:39.647Z,2.70
2019-05-09T03:13:41.620Z,2.80
2019-05-09T03:17:43.622Z,2.83
2019-05-09T03:21:58.659Z,2.47
2019-05-09T03:26:00.556Z,3.20
2019-05-09T03:30:04.978Z,3.07
2019-05-09T03:34:09.394Z,2.57
2019-05-09T03:38:10.823Z,2.43
2019-05-09T03:42:12.674Z,2.63
2019-05-09T03:46:21.400Z,2.20
2019-05-09T03:50:23.206Z,2.03
2019-05-09T03:54:28.259Z,2.20
2019-05-09T03:58:30.312Z,1.90
2019-05-09T04:02:32.705Z,1.90
2019-05-09T04:06:34.804Z,2.17
2019-05-09T04:10:38.535Z,1.90
2019-05-09T04:14:40.202Z,1.80
2019-05-09T04:18:43.169Z,1.70
2019-05-09T04:22:45.378Z,2.80
2019-05-09T04:27:12.475Z,1.50
2019-05-09T04:31:14.418Z,1.40
2019-05-09T04:35:17.621Z,1.40
2019-05-09T04:39:23.552Z,1.00
2019-05-09T04:43:34.609Z,0.87
2019-05-09T04:47:27.794Z,1.20
2019-05-09T04:51:29.857Z,0.93
2019-05-09T04:55:33.332Z,0.97
2019-05-09T04:59:37.398Z,1.40
2019-05-09T05:03:40.031Z,1.30
2019-05-09T05:07:42.984Z,0.80
2019-05-09T05:11:47.137Z,1.13
2019-05-09T05:15:48.726Z,1.00
2019-05-09T05:19:51.228Z,0.87
2019-05-09T05:24:11.069Z,1.20
2019-05-09T05:28:12.906Z,1.07
2019-05-09T05:32:24.293Z,1.33
2019-05-09T05:36:27.950Z,1.17
2019-05-09T05:40:33.351Z,1.00
2019-05-09T05:44:33.562Z,0.83
2019-05-09T05:48:38.144Z,1.00
2019-05-09T05:52:39.744Z,1.80
2019-05-09T05:56:41.813Z,0.70
2019-05-09T06:00:43.651Z,0.70
2019-05-09T06:04:45.528Z,1.33
2019-05-09T06:08:48.489Z,0.50
2019-05-09T06:12:50.596Z,0.70
2019-05-09T06:16:52.710Z,0.80
2019-05-09T06:20:54.575Z,0.60
2019-05-09T06:24:58.242Z,0.70
2019-05-09T06:28:59.984Z,0.70
2019-05-09T06:33:04.888Z,0.70
2019-05-09T06:37:08.611Z,0.70
2019-05-09T06:41:12.087Z,0.60
2019-05-09T06:45:31.343Z,0.83
2019-05-09T06:49:37.790Z,0.80
2019-05-09T06:53:39.862Z,1.00
2019-05-09T06:57:43.162Z,0.80
2019-05-09T07:01:59.843Z,0.80
2019-05-09T07:06:19.223Z,0.80
2019-05-09T07:10:21.194Z,1.00
2019-05-09T07:14:33.310Z,0.87
2019-05-09T07:18:33.864Z,0.57
2019-05-09T07:22:39.424Z,1.07
2019-05-09T07:26:41.536Z,0.63
2019-05-09T07:31:11.591Z,0.80
2019-05-09T07:35:12.943Z,0.60
2019-05-09T07:39:14.758Z,0.80
2019-05-09T07:43:18.005Z,0.63
2019-05-09T07:47:20.131Z,0.63
2019-05-09T07:51:22.508Z,1.23
2019-05-09T07:55:24.344Z,0.70
2019-05-09T07:59:27.468Z,1.00
2019-05-09T08:03:29.461Z,0.83
2019-05-09T08:07:33.208Z,1.00
2019-05-09T08:11:37.479Z,1.57
2019-05-09T08:15:38.679Z,0.73
2019-05-09T08:19:40.494Z,0.83
2019-05-09T08:23:42.500Z,1.10
2019-05-09T08:27:44.671Z,0.70
2019-05-09T08:31:48.580Z,0.73
2019-05-09T08:35:52.623Z,0.80
2019-05-09T08:39:54.151Z,1.10
2019-05-09T08:43:57.546Z,0.70
2019-05-09T08:47:59.745Z,0.80
2019-05-09T08:52:13.037Z,0.60
2019-05-09T08:56:12.929Z,0.60
2019-05-09T09:00:14.441Z,1.00
2019-05-09T09:04:18.815Z,0.70
2019-05-09T09:08:20.159Z,0.60
2019-05-09T09:12:30.285Z,0.50
2019-05-09T09:16:28.170Z,0.57
2019-05-09T09:20:29.540Z,0.73
2019-05-09T09:24:31.627Z,0.70
2019-05-09T09:28:33.506Z,0.70
2019-05-09T09:32:38.526Z,0.80
2019-05-09T09:36:39.605Z,0.87
2019-05-09T09:40:41.470Z,0.60
2019-05-09T09:44:43.864Z,0.70
2019-05-09T09:48:48.019Z,0.70
2019-05-09T09:52:49.760Z,0.70
2019-05-09T09:56:53.452Z,1.00
2019-05-09T10:01:08.989Z,0.83
2019-05-09T10:05:11.331Z,0.87
2019-05-09T10:09:13.357Z,0.80
2019-05-09T10:13:15.273Z,0.70
2019-05-09T10:17:42.368Z,0.93
2019-05-09T10:21:48.761Z,2.13
2019-05-09T10:25:51.163Z,1.00
2019-05-09T10:29:52.989Z,0.60
2019-05-09T10:33:54.986Z,0.67
2019-05-09T10:37:58.906Z,1.10
2019-05-09T10:42:02.325Z,0.63
2019-05-09T10:46:15.496Z,0.90
2019-05-09T10:50:18.352Z,0.80
2019-05-09T10:54:20.599Z,0.80
2019-05-09T10:58:23.845Z,0.67
2019-05-09T11:02:27.925Z,0.63
2019-05-09T11:06:29.467Z,0.90
2019-05-09T11:10:33.043Z,1.17
2019-05-09T11:14:37.518Z,0.70
2019-05-09T11:18:38.936Z,0.80
2019-05-09T11:22:40.993Z,0.53
2019-05-09T11:26:42.928Z,0.80
2019-05-09T11:30:44.830Z,1.00
2019-05-09T11:34:48.651Z,0.70
2019-05-09T11:38:51.091Z,0.67
2019-05-09T11:42:53.011Z,0.80
2019-05-09T11:46:55.216Z,1.23
2019-05-09T11:50:58.220Z,0.50
2019-05-09T11:55:00.809Z,0.50
2019-05-09T11:59:02.668Z,0.50
2019-05-09T12:03:04.551Z,0.70
2019-05-09T12:07:07.928Z,0.50
2019-05-09T12:11:10.110Z,0.50
2019-05-09T12:15:12.157Z,0.60
2019-05-09T12:19:14.110Z,0.50
2019-05-09T12:23:19.636Z,0.53
2019-05-09T12:27:19.803Z,0.50
2019-05-09T12:31:22.847Z,1.00
2019-05-09T12:35:24.837Z,0.60
2019-05-09T12:39:27.499Z,0.60
2019-05-09T12:43:29.876Z,0.70
2019-05-09T12:47:31.882Z,0.93
2019-05-09T12:51:33.875Z,0.70
2019-05-09T12:55:38.279Z,0.50
2019-05-09T12:59:48.450Z,0.73
2019-05-09T13:03:43.054Z,0.80
2019-05-09T13:07:44.892Z,0.50
2019-05-09T13:11:48.252Z,0.90
2019-05-09T13:16:11.991Z,0.70
2019-05-09T13:20:14.413Z,0.80
2019-05-09T13:24:19.643Z,0.70
2019-05-09T13:28:20.288Z,0.90
2019-05-09T13:32:22.524Z,0.90
2019-05-09T13:36:28.131Z,0.70
2019-05-09T13:40:29.614Z,0.50
2019-05-09T13:44:31.476Z,0.70
2019-05-09T13:48:57.253Z,0.63
2019-05-09T13:52:38.735Z,0.50
2019-05-09T13:56:40.650Z,0.70
2019-05-09T14:00:55.875Z,0.67
2019-05-09T14:04:48.614Z,0.60
2019-05-09T14:08:51.137Z,0.60
2019-05-09T14:13:05.829Z,0.70
2019-05-09T14:16:59.010Z,0.50
2019-05-09T14:21:00.221Z,0.50
2019-05-09T14:29:50.259Z,0.60
2019-05-09T14:34:02.881Z,0.50
2019-05-09T14:38:11.802Z,0.57
2019-05-09T14:42:13.759Z,0.70
2019-05-09T14:46:18.238Z,0.80
2019-05-09T14:50:19.543Z,0.80
2019-05-09T14:54:21.793Z,1.10
2019-05-09T14:58:23.667Z,0.73
2019-05-09T15:02:25.537Z,0.80
2019-05-09T15:06:28.256Z,1.00
2019-05-09T15:10:30.373Z,1.00
2019-05-09T15:14:32.333Z,0.90
2019-05-09T15:18:34.983Z,0.93
2019-05-09T15:22:38.765Z,0.93
2019-05-09T15:26:40.544Z,1.30
2019-05-09T15:30:42.363Z,1.30
2019-05-09T15:34:44.257Z,1.17
2019-05-09T15:38:48.458Z,1.27
2019-05-09T15:42:50.089Z,1.53
2019-05-09T15:47:07.564Z,1.27
2019-05-09T15:51:09.759Z,1.10
2019-05-09T15:55:12.513Z,0.90
2019-05-09T15:59:14.408Z,1.00
2019-05-09T16:03:18.442Z,1.13
2019-05-09T16:07:20.235Z,1.00
2019-05-09T16:11:22.089Z,0.80
2019-05-09T16:15:28.164Z,1.00
2019-05-09T16:19:28.941Z,1.37
2019-05-09T16:23:30.851Z,1.00
2019-05-09T16:27:34.265Z,1.20
2019-05-09T16:31:38.794Z,0.80
2019-05-09T16:35:39.905Z,1.23
2019-05-09T16:39:42.105Z,0.93
2019-05-09T16:43:43.935Z,1.20
2019-05-09T16:47:48.366Z,0.97
2019-05-09T16:51:49.807Z,1.07
2019-05-09T16:55:51.658Z,1.03
2019-05-09T16:59:53.491Z,1.10
2019-05-09T17:03:57.455Z,0.83
2019-05-09T17:07:58.960Z,1.40
2019-05-09T17:12:00.982Z,1.13
2019-05-09T17:16:02.856Z,1.00
2019-05-09T17:20:05.204Z,1.40
2019-05-09T17:24:09.703Z,1.40
2019-05-09T17:28:11.725Z,1.37
2019-05-09T17:32:13.709Z,1.33
2019-05-09T17:36:18.037Z,1.70
2019-05-09T17:40:19.382Z,1.43
2019-05-09T17:44:21.378Z,1.03
2019-05-09T17:48:25.053Z,1.27
2019-05-09T17:52:26.972Z,1.23
2019-05-09T17:56:28.811Z,1.40
2019-05-09T18:00:31.116Z,1.60
2019-05-09T18:04:33.086Z,1.47
2019-05-09T18:08:37.563Z,1.60
2019-05-09T18:12:38.784Z,1.37
2019-05-09T18:16:40.745Z,1.30
2019-05-09T18:20:43.225Z,1.50
2019-05-09T18:24:45.235Z,1.33
2019-05-09T18:28:47.929Z,1.57
2019-05-09T18:33:07.541Z,1.30
2019-05-09T18:37:09.516Z,1.50
2019-05-09T18:41:11.447Z,1.30
2019-05-09T18:45:17.375Z,2.03
2019-05-09T18:49:19.638Z,1.50
2019-05-09T18:53:22.325Z,1.47
2019-05-09T18:57:24.305Z,1.33
2019-05-09T19:01:26.159Z,1.10
2019-05-09T19:05:28.091Z,1.17
2019-05-09T19:09:29.954Z,1.50
2019-05-09T19:13:31.919Z,1.23
2019-05-09T19:18:02.016Z,1.87
2019-05-09T19:22:21.041Z,1.47
2019-05-09T19:26:27.612Z,1.20
2019-05-09T19:30:29.523Z,1.50
2019-05-09T19:34:31.391Z,1.23
2019-05-09T19:38:33.327Z,1.33
2019-05-09T19:42:35.253Z,1.30
2019-05-09T19:46:37.260Z,1.50
2019-05-09T19:50:39.693Z,1.23
2019-05-09T19:54:41.559Z,1.27
2019-05-09T19:58:43.387Z,1.13
2019-05-09T20:02:45.336Z,0.97
2019-05-09T20:06:47.266Z,1.13
2019-05-09T20:11:23.286Z,0.90
2019-05-09T20:15:25.795Z,1.20
2019-05-09T20:19:27.754Z,0.97
2019-05-09T20:23:29.616Z,0.80
2019-05-09T20:27:31.564Z,1.03
2019-05-09T20:31:33.405Z,0.93
2019-05-09T20:35:35.307Z,1.10
2019-05-09T20:39:37.422Z,1.00
2019-05-09T20:43:39.481Z,0.90
2019-05-09T20:47:41.488Z,1.37
2019-05-09T20:51:43.834Z,0.90
2019-05-09T20:55:45.845Z,1.33
2019-05-09T20:59:47.885Z,1.00
2019-05-09T21:03:59.420Z,0.90
2019-05-09T21:07:53.676Z,0.97
2019-05-09T21:11:55.803Z,1.00
2019-05-09T21:15:57.906Z,1.00
2019-05-09T21:19:59.948Z,0.80
2019-05-09T21:24:02.027Z,1.03
2019-05-09T21:28:05.341Z,1.10
2019-05-09T21:32:08.558Z,1.00
2019-05-09T21:36:10.477Z,1.00
2019-05-09T21:40:12.972Z,1.03
2019-05-09T21:44:15.059Z,1.17
2019-05-09T21:48:17.173Z,1.10
2019-05-09T21:52:19.631Z,1.00
2019-05-09T21:56:21.680Z,1.10
2019-05-09T22:00:29.236Z,0.90
2019-05-09T22:04:32.438Z,1.00
2019-05-09T22:08:34.252Z,0.77
2019-05-09T22:12:36.215Z,1.30
2019-05-09T22:16:38.027Z,0.87
2019-05-09T22:20:39.933Z,1.00
2019-05-09T22:24:41.749Z,0.90
2019-05-09T22:28:43.620Z,1.33
2019-05-09T22:32:45.550Z,1.20
2019-05-09T22:36:47.490Z,1.00
2019-05-09T22:40:49.597Z,1.17
2019-05-09T22:44:51.471Z,0.80
2019-05-09T22:48:53.283Z,0.93
2019-05-09T22:52:55.522Z,0.90
2019-05-09T22:56:57.351Z,1.13
2019-05-09T23:00:59.242Z,1.17
2019-05-09T23:05:01.103Z,0.80
2019-05-09T23:09:04.494Z,1.17
2019-05-09T23:13:06.378Z,0.87
2019-05-09T23:17:09.520Z,0.90
2019-05-09T23:21:12.377Z,1.00
2019-05-09T23:25:14.412Z,0.80
2019-05-09T23:29:16.411Z,1.07
2019-05-09T23:33:18.371Z,1.23
2019-05-09T23:37:20.159Z,0.93
2019-05-09T23:41:22.031Z,1.10
2019-05-09T23:45:23.840Z,1.23
2019-05-09T23:49:25.713Z,1.03
2019-05-09T23:53:36.019Z,1.00
2019-05-09T23:57:55.473Z,2.20
